sensor_id;sensor_type;location;lat;lon;timestamp;P1;durP1;ratioP1;P2;durP2;ratioP2
76935;SDS011;65881;52.438;16.744;2023-06-26T00:02:04;11.68;;;8.43;;
76935;SDS011;65881;52.438;16.744;2023-06-26T00:04:29;13.68;;;9.55;;
76935;SDS011;65881;52.438;16.744;2023-06-26T00:06:55;13.02;;;9.23;;
76935;SDS011;65881;52.438;16.744;2023-06-26T00:09:21;13.13;;;8.70;;
76935;SDS011;65881;52.438;16.744;2023-06-26T00:11:46;11.18;;;8.63;;
76935;SDS011;65881;52.438;16.744;2023-06-26T00:14:12;10.30;;;7.97;;
76935;SDS011;65881;52.438;16.744;2023-06-26T00:16:38;13.05;;;7.97;;
76935;SDS011;65881;52.438;16.744;2023-06-26T00:19:03;12.32;;;9.48;;
76935;SDS011;65881;52.438;16.744;2023-06-26T00:21:29;12.52;;;8.90;;
76935;SDS011;65881;52.438;16.744;2023-06-26T00:23:55;10.48;;;7.65;;
76935;SDS011;65881;52.438;16.744;2023-06-26T00:26:20;11.57;;;8.77;;
76935;SDS011;65881;52.438;16.744;2023-06-26T00:28:46;13.60;;;8.95;;
76935;SDS011;65881;52.438;16.744;2023-06-26T00:31:12;11.55;;;9.98;;
76935;SDS011;65881;52.438;16.744;2023-06-26T00:33:37;13.80;;;8.20;;
76935;SDS011;65881;52.438;16.744;2023-06-26T00:36:03;11.90;;;9.07;;
76935;SDS011;65881;52.438;16.744;2023-06-26T00:38:30;12.95;;;8.82;;
76935;SDS011;65881;52.438;16.744;2023-06-26T00:40:55;14.73;;;8.38;;
76935;SDS011;65881;52.438;16.744;2023-06-26T00:43:21;12.23;;;8.43;;
76935;SDS011;65881;52.438;16.744;2023-06-26T00:45:47;10.98;;;9.32;;
76935;SDS011;65881;52.438;16.744;2023-06-26T00:48:12;12.07;;;9.77;;
76935;SDS011;65881;52.438;16.744;2023-06-26T00:50:38;11.73;;;9.15;;
76935;SDS011;65881;52.438;16.744;2023-06-26T00:53:06;15.98;;;10.25;;
76935;SDS011;65881;52.438;16.744;2023-06-26T00:55:34;13.30;;;9.65;;
76935;SDS011;65881;52.438;16.744;2023-06-26T00:57:59;11.32;;;8.48;;
76935;SDS011;65881;52.438;16.744;2023-06-26T01:00:25;14.02;;;9.93;;
76935;SDS011;65881;52.438;16.744;2023-06-26T01:02:51;13.38;;;9.90;;
76935;SDS011;65881;52.438;16.744;2023-06-26T01:05:17;12.40;;;8.90;;
76935;SDS011;65881;52.438;16.744;2023-06-26T01:07:47;13.20;;;8.77;;
76935;SDS011;65881;52.438;16.744;2023-06-26T01:10:13;9.60;;;8.15;;
76935;SDS011;65881;52.438;16.744;2023-06-26T01:12:39;11.75;;;9.25;;
76935;SDS011;65881;52.438;16.744;2023-06-26T01:15:05;13.80;;;9.43;;
76935;SDS011;65881;52.438;16.744;2023-06-26T01:17:32;12.90;;;9.30;;
76935;SDS011;65881;52.438;16.744;2023-06-26T01:19:58;11.07;;;8.93;;
76935;SDS011;65881;52.438;16.744;2023-06-26T01:25:12;11.80;;;8.55;;
76935;SDS011;65881;52.438;16.744;2023-06-26T01:27:47;16.17;;;9.38;;
76935;SDS011;65881;52.438;16.744;2023-06-26T01:30:15;12.45;;;8.80;;
76935;SDS011;65881;52.438;16.744;2023-06-26T01:32:43;12.52;;;9.18;;
76935;SDS011;65881;52.438;16.744;2023-06-26T01:35:09;12.60;;;9.60;;
76935;SDS011;65881;52.438;16.744;2023-06-26T01:37:37;10.65;;;8.45;;
76935;SDS011;65881;52.438;16.744;2023-06-26T01:40:02;11.77;;;9.00;;
76935;SDS011;65881;52.438;16.744;2023-06-26T01:42:31;10.40;;;8.25;;
76935;SDS011;65881;52.438;16.744;2023-06-26T01:44:57;11.40;;;8.55;;
76935;SDS011;65881;52.438;16.744;2023-06-26T01:47:34;11.55;;;8.60;;
76935;SDS011;65881;52.438;16.744;2023-06-26T01:50:05;11.23;;;7.97;;
76935;SDS011;65881;52.438;16.744;2023-06-26T01:52:41;12.45;;;8.52;;
76935;SDS011;65881;52.438;16.744;2023-06-26T01:55:17;19.15;;;8.18;;
76935;SDS011;65881;52.438;16.744;2023-06-26T01:57:54;12.85;;;8.40;;
76935;SDS011;65881;52.438;16.744;2023-06-26T02:00:22;11.50;;;8.13;;
76935;SDS011;65881;52.438;16.744;2023-06-26T02:02:49;13.65;;;9.63;;
76935;SDS011;65881;52.438;16.744;2023-06-26T02:05:15;11.52;;;8.13;;
76935;SDS011;65881;52.438;16.744;2023-06-26T02:07:41;15.05;;;9.40;;
76935;SDS011;65881;52.438;16.744;2023-06-26T02:10:06;13.98;;;8.57;;
76935;SDS011;65881;52.438;16.744;2023-06-26T02:12:33;12.02;;;8.40;;
76935;SDS011;65881;52.438;16.744;2023-06-26T02:14:59;11.23;;;8.23;;
76935;SDS011;65881;52.438;16.744;2023-06-26T02:17:25;11.18;;;8.15;;
76935;SDS011;65881;52.438;16.744;2023-06-26T02:19:51;12.50;;;8.38;;
76935;SDS011;65881;52.438;16.744;2023-06-26T02:22:16;14.40;;;9.73;;
76935;SDS011;65881;52.438;16.744;2023-06-26T02:24:43;13.55;;;10.38;;
76935;SDS011;65881;52.438;16.744;2023-06-26T02:27:09;11.65;;;9.32;;
76935;SDS011;65881;52.438;16.744;2023-06-26T02:29:35;10.82;;;8.50;;
76935;SDS011;65881;52.438;16.744;2023-06-26T02:32:01;17.63;;;9.48;;
76935;SDS011;65881;52.438;16.744;2023-06-26T02:34:27;10.98;;;8.23;;
76935;SDS011;65881;52.438;16.744;2023-06-26T02:36:53;12.48;;;8.82;;
76935;SDS011;65881;52.438;16.744;2023-06-26T02:39:21;14.13;;;8.43;;
76935;SDS011;65881;52.438;16.744;2023-06-26T02:41:47;10.65;;;8.07;;
76935;SDS011;65881;52.438;16.744;2023-06-26T02:44:13;12.82;;;9.38;;
76935;SDS011;65881;52.438;16.744;2023-06-26T02:46:39;11.55;;;8.30;;
76935;SDS011;65881;52.438;16.744;2023-06-26T02:49:05;14.18;;;9.77;;
76935;SDS011;65881;52.438;16.744;2023-06-26T02:51:32;14.98;;;9.13;;
76935;SDS011;65881;52.438;16.744;2023-06-26T02:53:59;10.65;;;8.68;;
76935;SDS011;65881;52.438;16.744;2023-06-26T02:56:25;11.65;;;8.30;;
76935;SDS011;65881;52.438;16.744;2023-06-26T02:58:55;14.40;;;10.25;;
76935;SDS011;65881;52.438;16.744;2023-06-26T03:01:21;13.65;;;10.35;;
76935;SDS011;65881;52.438;16.744;2023-06-26T03:03:46;12.90;;;9.55;;
76935;SDS011;65881;52.438;16.744;2023-06-26T03:06:13;12.60;;;9.00;;
76935;SDS011;65881;52.438;16.744;2023-06-26T03:08:39;11.27;;;7.68;;
76935;SDS011;65881;52.438;16.744;2023-06-26T03:11:08;11.75;;;8.48;;
76935;SDS011;65881;52.438;16.744;2023-06-26T03:13:36;13.52;;;8.35;;
76935;SDS011;65881;52.438;16.744;2023-06-26T03:16:02;12.32;;;8.80;;
76935;SDS011;65881;52.438;16.744;2023-06-26T03:18:29;12.30;;;8.32;;
76935;SDS011;65881;52.438;16.744;2023-06-26T03:20:54;11.95;;;8.65;;
76935;SDS011;65881;52.438;16.744;2023-06-26T03:23:22;14.30;;;8.70;;
76935;SDS011;65881;52.438;16.744;2023-06-26T03:25:48;12.55;;;9.23;;
76935;SDS011;65881;52.438;16.744;2023-06-26T03:28:14;10.95;;;8.30;;
76935;SDS011;65881;52.438;16.744;2023-06-26T03:30:40;14.90;;;9.82;;
76935;SDS011;65881;52.438;16.744;2023-06-26T03:33:06;16.20;;;10.48;;
76935;SDS011;65881;52.438;16.744;2023-06-26T03:35:35;15.40;;;10.52;;
76935;SDS011;65881;52.438;16.744;2023-06-26T03:38:16;17.38;;;10.27;;
76935;SDS011;65881;52.438;16.744;2023-06-26T03:40:42;15.77;;;10.55;;
76935;SDS011;65881;52.438;16.744;2023-06-26T03:43:08;14.68;;;10.52;;
76935;SDS011;65881;52.438;16.744;2023-06-26T03:45:33;16.02;;;9.25;;
76935;SDS011;65881;52.438;16.744;2023-06-26T03:47:59;14.98;;;10.40;;
76935;SDS011;65881;52.438;16.744;2023-06-26T03:50:25;14.13;;;10.10;;
76935;SDS011;65881;52.438;16.744;2023-06-26T03:52:50;14.75;;;10.27;;
76935;SDS011;65881;52.438;16.744;2023-06-26T03:55:17;11.60;;;8.98;;
76935;SDS011;65881;52.438;16.744;2023-06-26T03:57:42;14.43;;;9.57;;
76935;SDS011;65881;52.438;16.744;2023-06-26T04:00:08;14.13;;;10.40;;
76935;SDS011;65881;52.438;16.744;2023-06-26T04:02:36;13.35;;;10.73;;
76935;SDS011;65881;52.438;16.744;2023-06-26T04:05:02;14.38;;;9.43;;
76935;SDS011;65881;52.438;16.744;2023-06-26T04:07:29;12.43;;;9.13;;
76935;SDS011;65881;52.438;16.744;2023-06-26T04:09:56;10.75;;;8.32;;
76935;SDS011;65881;52.438;16.744;2023-06-26T04:12:22;18.77;;;10.82;;
76935;SDS011;65881;52.438;16.744;2023-06-26T04:14:48;12.88;;;9.57;;
76935;SDS011;65881;52.438;16.744;2023-06-26T04:17:13;14.18;;;8.85;;
76935;SDS011;65881;52.438;16.744;2023-06-26T04:19:39;14.40;;;9.93;;
76935;SDS011;65881;52.438;16.744;2023-06-26T04:22:05;13.77;;;9.70;;
76935;SDS011;65881;52.438;16.744;2023-06-26T04:24:30;16.40;;;10.50;;
76935;SDS011;65881;52.438;16.744;2023-06-26T04:26:56;13.70;;;9.52;;
76935;SDS011;65881;52.438;16.744;2023-06-26T04:29:22;15.55;;;11.23;;
76935;SDS011;65881;52.438;16.744;2023-06-26T04:31:52;14.30;;;9.38;;
76935;SDS011;65881;52.438;16.744;2023-06-26T04:34:22;14.20;;;8.18;;
76935;SDS011;65881;52.438;16.744;2023-06-26T04:36:51;13.65;;;9.82;;
76935;SDS011;65881;52.438;16.744;2023-06-26T04:39:19;14.35;;;8.70;;
76935;SDS011;65881;52.438;16.744;2023-06-26T04:41:45;16.50;;;12.75;;
76935;SDS011;65881;52.438;16.744;2023-06-26T04:44:17;17.25;;;12.10;;
76935;SDS011;65881;52.438;16.744;2023-06-26T04:46:43;17.83;;;12.25;;
76935;SDS011;65881;52.438;16.744;2023-06-26T04:49:09;17.02;;;11.38;;
76935;SDS011;65881;52.438;16.744;2023-06-26T04:51:35;15.55;;;10.32;;
76935;SDS011;65881;52.438;16.744;2023-06-26T04:54:08;15.52;;;9.43;;
76935;SDS011;65881;52.438;16.744;2023-06-26T04:56:35;12.40;;;9.20;;
76935;SDS011;65881;52.438;16.744;2023-06-26T04:59:02;12.45;;;9.02;;
76935;SDS011;65881;52.438;16.744;2023-06-26T05:01:28;12.82;;;7.82;;
76935;SDS011;65881;52.438;16.744;2023-06-26T05:04:06;12.00;;;8.32;;
76935;SDS011;65881;52.438;16.744;2023-06-26T05:06:32;13.57;;;8.43;;
76935;SDS011;65881;52.438;16.744;2023-06-26T05:09:05;11.82;;;9.02;;
76935;SDS011;65881;52.438;16.744;2023-06-26T05:11:30;12.02;;;9.40;;
76935;SDS011;65881;52.438;16.744;2023-06-26T05:13:56;12.70;;;7.70;;
76935;SDS011;65881;52.438;16.744;2023-06-26T05:16:22;11.70;;;8.93;;
76935;SDS011;65881;52.438;16.744;2023-06-26T05:18:47;10.38;;;8.10;;
76935;SDS011;65881;52.438;16.744;2023-06-26T05:24:01;10.70;;;7.57;;
76935;SDS011;65881;52.438;16.744;2023-06-26T05:26:28;11.98;;;9.30;;
76935;SDS011;65881;52.438;16.744;2023-06-26T05:32:16;12.55;;;7.70;;
76935;SDS011;65881;52.438;16.744;2023-06-26T05:34:43;12.32;;;8.00;;
76935;SDS011;65881;52.438;16.744;2023-06-26T05:37:12;10.95;;;8.35;;
76935;SDS011;65881;52.438;16.744;2023-06-26T05:39:44;12.75;;;7.75;;
76935;SDS011;65881;52.438;16.744;2023-06-26T05:42:10;13.50;;;7.93;;
76935;SDS011;65881;52.438;16.744;2023-06-26T05:44:39;9.82;;;7.38;;
76935;SDS011;65881;52.438;16.744;2023-06-26T05:47:07;9.30;;;7.32;;
76935;SDS011;65881;52.438;16.744;2023-06-26T05:49:33;15.38;;;9.25;;
76935;SDS011;65881;52.438;16.744;2023-06-26T05:51:59;10.88;;;7.40;;
76935;SDS011;65881;52.438;16.744;2023-06-26T05:54:28;14.32;;;7.43;;
76935;SDS011;65881;52.438;16.744;2023-06-26T05:56:56;8.40;;;6.40;;
76935;SDS011;65881;52.438;16.744;2023-06-26T05:59:24;9.70;;;7.35;;
76935;SDS011;65881;52.438;16.744;2023-06-26T06:02:12;9.82;;;7.03;;
76935;SDS011;65881;52.438;16.744;2023-06-26T06:04:37;8.63;;;7.38;;
76935;SDS011;65881;52.438;16.744;2023-06-26T06:07:04;10.85;;;7.43;;
76935;SDS011;65881;52.438;16.744;2023-06-26T06:09:30;13.50;;;7.80;;
76935;SDS011;65881;52.438;16.744;2023-06-26T06:11:56;10.43;;;6.88;;
76935;SDS011;65881;52.438;16.744;2023-06-26T06:14:31;12.32;;;7.45;;
76935;SDS011;65881;52.438;16.744;2023-06-26T06:16:57;12.32;;;8.55;;
76935;SDS011;65881;52.438;16.744;2023-06-26T06:19:23;11.05;;;7.18;;
76935;SDS011;65881;52.438;16.744;2023-06-26T06:21:49;15.15;;;8.05;;
76935;SDS011;65881;52.438;16.744;2023-06-26T06:24:15;15.63;;;7.10;;
76935;SDS011;65881;52.438;16.744;2023-06-26T06:26:40;13.07;;;7.45;;
76935;SDS011;65881;52.438;16.744;2023-06-26T06:29:06;14.13;;;8.52;;
76935;SDS011;65881;52.438;16.744;2023-06-26T06:31:32;11.13;;;7.80;;
76935;SDS011;65881;52.438;16.744;2023-06-26T06:33:58;14.32;;;7.68;;
76935;SDS011;65881;52.438;16.744;2023-06-26T06:36:25;12.95;;;7.15;;
76935;SDS011;65881;52.438;16.744;2023-06-26T06:38:50;10.90;;;7.22;;
76935;SDS011;65881;52.438;16.744;2023-06-26T06:41:16;11.77;;;7.78;;
76935;SDS011;65881;52.438;16.744;2023-06-26T06:43:56;10.80;;;7.03;;
76935;SDS011;65881;52.438;16.744;2023-06-26T06:46:22;11.70;;;6.90;;
76935;SDS011;65881;52.438;16.744;2023-06-26T06:48:48;10.15;;;7.32;;
76935;SDS011;65881;52.438;16.744;2023-06-26T06:51:13;10.25;;;6.82;;
76935;SDS011;65881;52.438;16.744;2023-06-26T06:53:39;9.13;;;5.97;;
76935;SDS011;65881;52.438;16.744;2023-06-26T06:56:05;10.35;;;6.22;;
76935;SDS011;65881;52.438;16.744;2023-06-26T06:58:39;13.40;;;6.05;;
76935;SDS011;65881;52.438;16.744;2023-06-26T07:01:07;12.43;;;5.40;;
76935;SDS011;65881;52.438;16.744;2023-06-26T07:03:34;5.68;;;4.70;;
76935;SDS011;65881;52.438;16.744;2023-06-26T07:06:05;8.93;;;5.03;;
76935;SDS011;65881;52.438;16.744;2023-06-26T07:08:45;8.05;;;5.80;;
76935;SDS011;65881;52.438;16.744;2023-06-26T07:11:44;9.75;;;5.05;;
76935;SDS011;65881;52.438;16.744;2023-06-26T07:14:13;7.60;;;5.43;;
76935;SDS011;65881;52.438;16.744;2023-06-26T07:16:38;7.95;;;4.78;;
76935;SDS011;65881;52.438;16.744;2023-06-26T07:19:04;5.68;;;4.20;;
76935;SDS011;65881;52.438;16.744;2023-06-26T07:21:31;7.68;;;4.82;;
76935;SDS011;65881;52.438;16.744;2023-06-26T07:23:57;8.50;;;4.80;;
76935;SDS011;65881;52.438;16.744;2023-06-26T07:26:22;9.07;;;4.93;;
76935;SDS011;65881;52.438;16.744;2023-06-26T07:28:48;8.95;;;4.70;;
76935;SDS011;65881;52.438;16.744;2023-06-26T07:31:15;6.43;;;4.63;;
76935;SDS011;65881;52.438;16.744;2023-06-26T07:33:41;6.45;;;4.65;;
76935;SDS011;65881;52.438;16.744;2023-06-26T07:36:07;5.95;;;4.28;;
76935;SDS011;65881;52.438;16.744;2023-06-26T07:38:33;5.43;;;4.10;;
76935;SDS011;65881;52.438;16.744;2023-06-26T07:41:01;6.97;;;4.25;;
76935;SDS011;65881;52.438;16.744;2023-06-26T07:43:27;9.77;;;5.13;;
76935;SDS011;65881;52.438;16.744;2023-06-26T07:46:09;7.65;;;4.90;;
76935;SDS011;65881;52.438;16.744;2023-06-26T07:48:34;5.43;;;4.60;;
76935;SDS011;65881;52.438;16.744;2023-06-26T07:51:00;7.72;;;4.75;;
76935;SDS011;65881;52.438;16.744;2023-06-26T07:56:10;9.20;;;5.07;;
76935;SDS011;65881;52.438;16.744;2023-06-26T07:58:36;8.20;;;4.53;;
76935;SDS011;65881;52.438;16.744;2023-06-26T08:01:05;5.07;;;4.43;;
76935;SDS011;65881;52.438;16.744;2023-06-26T08:03:36;7.10;;;4.88;;
76935;SDS011;65881;52.438;16.744;2023-06-26T08:06:01;6.40;;;4.45;;
76935;SDS011;65881;52.438;16.744;2023-06-26T08:10:59;5.63;;;4.63;;
76935;SDS011;65881;52.438;16.744;2023-06-26T08:13:29;6.32;;;4.40;;
76935;SDS011;65881;52.438;16.744;2023-06-26T08:15:55;8.00;;;5.25;;
76935;SDS011;65881;52.438;16.744;2023-06-26T08:18:20;5.35;;;4.40;;
76935;SDS011;65881;52.438;16.744;2023-06-26T08:20:46;7.07;;;4.72;;
76935;SDS011;65881;52.438;16.744;2023-06-26T08:23:28;8.10;;;4.43;;
76935;SDS011;65881;52.438;16.744;2023-06-26T08:28:39;8.25;;;5.15;;
76935;SDS011;65881;52.438;16.744;2023-06-26T08:31:05;5.43;;;4.40;;
76935;SDS011;65881;52.438;16.744;2023-06-26T08:33:31;5.40;;;4.22;;
76935;SDS011;65881;52.438;16.744;2023-06-26T08:35:56;6.45;;;5.13;;
76935;SDS011;65881;52.438;16.744;2023-06-26T08:38:28;6.20;;;4.75;;
76935;SDS011;65881;52.438;16.744;2023-06-26T08:40:54;6.45;;;4.90;;
76935;SDS011;65881;52.438;16.744;2023-06-26T08:43:20;6.55;;;4.78;;
76935;SDS011;65881;52.438;16.744;2023-06-26T08:45:47;5.88;;;4.35;;
76935;SDS011;65881;52.438;16.744;2023-06-26T08:48:16;5.65;;;4.30;;
76935;SDS011;65881;52.438;16.744;2023-06-26T08:50:44;6.38;;;4.85;;
76935;SDS011;65881;52.438;16.744;2023-06-26T08:53:21;5.60;;;4.60;;
76935;SDS011;65881;52.438;16.744;2023-06-26T08:56:00;5.45;;;4.57;;
76935;SDS011;65881;52.438;16.744;2023-06-26T08:58:30;5.20;;;3.97;;
76935;SDS011;65881;52.438;16.744;2023-06-26T09:00:57;6.65;;;5.10;;
76935;SDS011;65881;52.438;16.744;2023-06-26T09:03:26;5.97;;;4.70;;
76935;SDS011;65881;52.438;16.744;2023-06-26T09:05:59;5.38;;;4.28;;
76935;SDS011;65881;52.438;16.744;2023-06-26T09:08:25;5.97;;;4.72;;
76935;SDS011;65881;52.438;16.744;2023-06-26T09:10:54;8.27;;;4.95;;
76935;SDS011;65881;52.438;16.744;2023-06-26T09:13:22;8.07;;;4.47;;
76935;SDS011;65881;52.438;16.744;2023-06-26T09:15:48;7.32;;;4.75;;
76935;SDS011;65881;52.438;16.744;2023-06-26T09:18:17;8.25;;;5.18;;
76935;SDS011;65881;52.438;16.744;2023-06-26T09:20:44;6.63;;;5.78;;
76935;SDS011;65881;52.438;16.744;2023-06-26T09:23:29;6.18;;;4.78;;
76935;SDS011;65881;52.438;16.744;2023-06-26T09:26:05;8.48;;;5.40;;
76935;SDS011;65881;52.438;16.744;2023-06-26T09:28:34;6.82;;;5.05;;
76935;SDS011;65881;52.438;16.744;2023-06-26T09:33:37;7.68;;;5.50;;
76935;SDS011;65881;52.438;16.744;2023-06-26T09:36:07;5.50;;;4.70;;
76935;SDS011;65881;52.438;16.744;2023-06-26T09:38:44;8.80;;;4.22;;
76935;SDS011;65881;52.438;16.744;2023-06-26T09:41:11;6.25;;;4.60;;
76935;SDS011;65881;52.438;16.744;2023-06-26T09:46:41;12.15;;;5.40;;
76935;SDS011;65881;52.438;16.744;2023-06-26T09:49:13;6.63;;;5.03;;
76935;SDS011;65881;52.438;16.744;2023-06-26T09:51:43;6.68;;;4.55;;
76935;SDS011;65881;52.438;16.744;2023-06-26T09:54:12;5.82;;;5.22;;
76935;SDS011;65881;52.438;16.744;2023-06-26T09:56:41;6.70;;;5.22;;
76935;SDS011;65881;52.438;16.744;2023-06-26T09:59:06;6.30;;;4.75;;
76935;SDS011;65881;52.438;16.744;2023-06-26T10:01:41;6.47;;;5.00;;
76935;SDS011;65881;52.438;16.744;2023-06-26T10:04:15;5.10;;;4.60;;
76935;SDS011;65881;52.438;16.744;2023-06-26T10:07:01;6.13;;;4.70;;
76935;SDS011;65881;52.438;16.744;2023-06-26T10:09:29;5.65;;;4.97;;
76935;SDS011;65881;52.438;16.744;2023-06-26T10:11:57;5.20;;;4.68;;
76935;SDS011;65881;52.438;16.744;2023-06-26T10:14:26;6.15;;;4.53;;
76935;SDS011;65881;52.438;16.744;2023-06-26T10:19:21;7.47;;;4.85;;
76935;SDS011;65881;52.438;16.744;2023-06-26T10:21:53;6.00;;;4.97;;
76935;SDS011;65881;52.438;16.744;2023-06-26T10:24:37;7.13;;;4.72;;
76935;SDS011;65881;52.438;16.744;2023-06-26T10:27:11;5.38;;;4.50;;
76935;SDS011;65881;52.438;16.744;2023-06-26T10:29:46;5.63;;;4.43;;
76935;SDS011;65881;52.438;16.744;2023-06-26T10:32:18;5.30;;;4.53;;
76935;SDS011;65881;52.438;16.744;2023-06-26T10:34:49;8.00;;;4.68;;
76935;SDS011;65881;52.438;16.744;2023-06-26T10:37:15;6.00;;;5.40;;
76935;SDS011;65881;52.438;16.744;2023-06-26T10:39:47;10.48;;;4.97;;
76935;SDS011;65881;52.438;16.744;2023-06-26T10:42:35;7.10;;;4.72;;
76935;SDS011;65881;52.438;16.744;2023-06-26T10:45:35;5.50;;;4.38;;
76935;SDS011;65881;52.438;16.744;2023-06-26T10:47:54;5.43;;;4.40;;
76935;SDS011;65881;52.438;16.744;2023-06-26T10:50:24;6.00;;;4.28;;
76935;SDS011;65881;52.438;16.744;2023-06-26T10:56:02;5.57;;;5.00;;
76935;SDS011;65881;52.438;16.744;2023-06-26T11:01:25;8.98;;;5.00;;
76935;SDS011;65881;52.438;16.744;2023-06-26T11:04:13;5.28;;;4.40;;
76935;SDS011;65881;52.438;16.744;2023-06-26T11:06:41;6.10;;;5.10;;
76935;SDS011;65881;52.438;16.744;2023-06-26T11:09:11;5.10;;;4.60;;
76935;SDS011;65881;52.438;16.744;2023-06-26T11:14:18;5.32;;;4.47;;
76935;SDS011;65881;52.438;16.744;2023-06-26T11:16:47;8.65;;;4.40;;
76935;SDS011;65881;52.438;16.744;2023-06-26T11:19:14;5.70;;;4.60;;
76935;SDS011;65881;52.438;16.744;2023-06-26T11:21:52;9.52;;;5.25;;
76935;SDS011;65881;52.438;16.744;2023-06-26T11:24:26;4.82;;;4.32;;
76935;SDS011;65881;52.438;16.744;2023-06-26T11:26:59;4.90;;;4.32;;
76935;SDS011;65881;52.438;16.744;2023-06-26T11:29:25;5.68;;;4.68;;
76935;SDS011;65881;52.438;16.744;2023-06-26T11:31:55;5.20;;;4.57;;
76935;SDS011;65881;52.438;16.744;2023-06-26T11:34:25;5.90;;;5.00;;
76935;SDS011;65881;52.438;16.744;2023-06-26T11:36:56;4.47;;;4.00;;
76935;SDS011;65881;52.438;16.744;2023-06-26T11:39:22;5.25;;;4.35;;
76935;SDS011;65881;52.438;16.744;2023-06-26T11:41:48;8.25;;;4.78;;
76935;SDS011;65881;52.438;16.744;2023-06-26T11:44:15;6.20;;;4.85;;
76935;SDS011;65881;52.438;16.744;2023-06-26T11:46:45;6.45;;;4.53;;
76935;SDS011;65881;52.438;16.744;2023-06-26T11:49:10;5.18;;;4.65;;
76935;SDS011;65881;52.438;16.744;2023-06-26T11:51:37;5.65;;;4.50;;
76935;SDS011;65881;52.438;16.744;2023-06-26T11:54:03;5.10;;;4.55;;
76935;SDS011;65881;52.438;16.744;2023-06-26T11:56:30;5.63;;;4.38;;
76935;SDS011;65881;52.438;16.744;2023-06-26T11:58:56;7.93;;;5.35;;
76935;SDS011;65881;52.438;16.744;2023-06-26T12:01:24;7.90;;;4.30;;
76935;SDS011;65881;52.438;16.744;2023-06-26T12:03:59;6.75;;;4.43;;
76935;SDS011;65881;52.438;16.744;2023-06-26T12:06:33;6.40;;;4.85;;
76935;SDS011;65881;52.438;16.744;2023-06-26T12:09:07;5.55;;;4.90;;
76935;SDS011;65881;52.438;16.744;2023-06-26T12:11:37;5.65;;;5.05;;
76935;SDS011;65881;52.438;16.744;2023-06-26T12:16:47;7.30;;;5.15;;
76935;SDS011;65881;52.438;16.744;2023-06-26T12:19:13;5.82;;;4.80;;
76935;SDS011;65881;52.438;16.744;2023-06-26T12:21:48;6.03;;;4.90;;
76935;SDS011;65881;52.438;16.744;2023-06-26T12:24:18;4.82;;;4.32;;
76935;SDS011;65881;52.438;16.744;2023-06-26T12:26:53;6.57;;;4.88;;
76935;SDS011;65881;52.438;16.744;2023-06-26T12:29:43;5.03;;;4.53;;
76935;SDS011;65881;52.438;16.744;2023-06-26T12:35:12;5.60;;;4.35;;
76935;SDS011;65881;52.438;16.744;2023-06-26T12:37:39;9.75;;;4.90;;
76935;SDS011;65881;52.438;16.744;2023-06-26T12:40:16;5.30;;;4.40;;
76935;SDS011;65881;52.438;16.744;2023-06-26T12:42:44;6.30;;;5.00;;
76935;SDS011;65881;52.438;16.744;2023-06-26T12:45:13;6.10;;;5.30;;
76935;SDS011;65881;52.438;16.744;2023-06-26T12:47:40;6.20;;;5.60;;
76935;SDS011;65881;52.438;16.744;2023-06-26T12:50:06;6.97;;;5.55;;
76935;SDS011;65881;52.438;16.744;2023-06-26T12:52:38;6.20;;;5.55;;
76935;SDS011;65881;52.438;16.744;2023-06-26T12:55:04;6.13;;;5.53;;
76935;SDS011;65881;52.438;16.744;2023-06-26T12:57:33;6.22;;;4.90;;
76935;SDS011;65881;52.438;16.744;2023-06-26T12:59:59;6.40;;;5.60;;
76935;SDS011;65881;52.438;16.744;2023-06-26T13:02:30;6.30;;;5.18;;
76935;SDS011;65881;52.438;16.744;2023-06-26T13:04:55;6.78;;;5.57;;
76935;SDS011;65881;52.438;16.744;2023-06-26T13:07:21;8.75;;;5.47;;
76935;SDS011;65881;52.438;16.744;2023-06-26T13:09:50;7.22;;;5.45;;
76935;SDS011;65881;52.438;16.744;2023-06-26T13:12:15;6.35;;;5.00;;
76935;SDS011;65881;52.438;16.744;2023-06-26T13:14:41;7.25;;;6.30;;
76935;SDS011;65881;52.438;16.744;2023-06-26T13:17:07;6.38;;;5.75;;
76935;SDS011;65881;52.438;16.744;2023-06-26T13:19:32;7.43;;;6.20;;
76935;SDS011;65881;52.438;16.744;2023-06-26T13:21:58;8.55;;;6.70;;
76935;SDS011;65881;52.438;16.744;2023-06-26T13:24:28;7.70;;;5.72;;
76935;SDS011;65881;52.438;16.744;2023-06-26T13:26:56;8.73;;;5.45;;
76935;SDS011;65881;52.438;16.744;2023-06-26T13:29:22;7.63;;;5.57;;
76935;SDS011;65881;52.438;16.744;2023-06-26T13:31:48;7.20;;;5.70;;
76935;SDS011;65881;52.438;16.744;2023-06-26T13:34:23;7.07;;;6.00;;
76935;SDS011;65881;52.438;16.744;2023-06-26T13:36:49;6.10;;;5.50;;
76935;SDS011;65881;52.438;16.744;2023-06-26T13:39:15;6.63;;;6.03;;
76935;SDS011;65881;52.438;16.744;2023-06-26T13:41:41;8.23;;;5.78;;
76935;SDS011;65881;52.438;16.744;2023-06-26T13:44:06;7.65;;;5.70;;
76935;SDS011;65881;52.438;16.744;2023-06-26T13:46:32;7.18;;;6.03;;
76935;SDS011;65881;52.438;16.744;2023-06-26T13:48:58;6.97;;;6.28;;
76935;SDS011;65881;52.438;16.744;2023-06-26T13:51:23;7.07;;;5.93;;
76935;SDS011;65881;52.438;16.744;2023-06-26T13:53:49;9.65;;;5.13;;
76935;SDS011;65881;52.438;16.744;2023-06-26T13:56:15;6.60;;;5.28;;
76935;SDS011;65881;52.438;16.744;2023-06-26T13:58:41;5.72;;;5.10;;
76935;SDS011;65881;52.438;16.744;2023-06-26T14:01:07;6.57;;;5.70;;
76935;SDS011;65881;52.438;16.744;2023-06-26T14:03:32;7.18;;;5.90;;
76935;SDS011;65881;52.438;16.744;2023-06-26T14:05:58;5.88;;;4.97;;
76935;SDS011;65881;52.438;16.744;2023-06-26T14:08:24;6.38;;;5.70;;
76935;SDS011;65881;52.438;16.744;2023-06-26T14:10:49;8.40;;;5.53;;
76935;SDS011;65881;52.438;16.744;2023-06-26T14:13:15;9.73;;;6.75;;
76935;SDS011;65881;52.438;16.744;2023-06-26T14:15:41;6.50;;;5.90;;
76935;SDS011;65881;52.438;16.744;2023-06-26T14:18:07;9.75;;;6.70;;
76935;SDS011;65881;52.438;16.744;2023-06-26T14:20:33;8.68;;;6.47;;
76935;SDS011;65881;52.438;16.744;2023-06-26T14:23:00;7.72;;;6.43;;
76935;SDS011;65881;52.438;16.744;2023-06-26T14:25:27;7.32;;;6.05;;
76935;SDS011;65881;52.438;16.744;2023-06-26T14:27:53;8.57;;;6.93;;
76935;SDS011;65881;52.438;16.744;2023-06-26T14:30:23;10.50;;;6.95;;
76935;SDS011;65881;52.438;16.744;2023-06-26T14:32:48;8.13;;;5.80;;
76935;SDS011;65881;52.438;16.744;2023-06-26T14:35:15;6.68;;;5.97;;
76935;SDS011;65881;52.438;16.744;2023-06-26T14:37:40;6.32;;;5.72;;
76935;SDS011;65881;52.438;16.744;2023-06-26T14:40:07;12.55;;;6.88;;
76935;SDS011;65881;52.438;16.744;2023-06-26T14:42:33;8.27;;;6.78;;
76935;SDS011;65881;52.438;16.744;2023-06-26T14:45:02;7.38;;;6.65;;
76935;SDS011;65881;52.438;16.744;2023-06-26T14:47:28;10.02;;;7.10;;
76935;SDS011;65881;52.438;16.744;2023-06-26T14:49:54;7.80;;;5.95;;
76935;SDS011;65881;52.438;16.744;2023-06-26T14:52:19;7.20;;;6.50;;
76935;SDS011;65881;52.438;16.744;2023-06-26T14:54:45;7.43;;;6.72;;
76935;SDS011;65881;52.438;16.744;2023-06-26T14:59:41;8.48;;;7.38;;
76935;SDS011;65881;52.438;16.744;2023-06-26T15:02:07;7.68;;;6.43;;
76935;SDS011;65881;52.438;16.744;2023-06-26T15:04:33;7.60;;;6.65;;
76935;SDS011;65881;52.438;16.744;2023-06-26T15:06:58;8.07;;;6.70;;
76935;SDS011;65881;52.438;16.744;2023-06-26T15:09:24;7.57;;;6.82;;
76935;SDS011;65881;52.438;16.744;2023-06-26T15:11:50;12.45;;;7.35;;
76935;SDS011;65881;52.438;16.744;2023-06-26T15:14:16;7.93;;;7.13;;
76935;SDS011;65881;52.438;16.744;2023-06-26T15:16:41;7.80;;;7.00;;